createdAt,value
2023-02-25T00:00:21.750Z,2.90
2023-02-25T00:02:53.053Z,2.80
2023-02-25T00:05:21.809Z,2.90
2023-02-25T00:07:50.901Z,2.80
2023-02-25T00:10:20.275Z,2.80
2023-02-25T00:12:51.661Z,2.80
2023-02-25T00:15:21.770Z,2.80
2023-02-25T00:17:52.319Z,2.80
2023-02-25T00:20:23.031Z,2.80
2023-02-25T00:22:52.310Z,2.80
2023-02-25T00:25:21.185Z,2.70
2023-02-25T00:27:50.097Z,2.80
2023-02-25T00:30:19.347Z,2.70
2023-02-25T00:32:48.369Z,2.60
2023-02-25T00:35:19.092Z,2.50
2023-02-25T00:37:47.925Z,2.50
2023-02-25T00:40:16.992Z,2.40
2023-02-25T00:42:46.345Z,2.40
2023-02-25T00:45:15.479Z,2.40
2023-02-25T00:47:44.466Z,2.40
2023-02-25T00:50:14.675Z,2.40
2023-02-25T00:52:47.316Z,2.40
2023-02-25T00:55:17.724Z,2.40
2023-02-25T00:57:46.618Z,2.40
2023-02-25T01:00:18.018Z,2.40
2023-02-25T01:02:48.010Z,2.40
2023-02-25T01:05:18.219Z,2.30
2023-02-25T01:07:48.732Z,2.40
2023-02-25T01:10:17.983Z,2.40
2023-02-25T01:12:47.065Z,2.40
2023-02-25T01:15:17.163Z,2.40
2023-02-25T01:17:46.258Z,2.40
2023-02-25T01:20:20.102Z,2.40
2023-02-25T01:22:50.308Z,2.40
2023-02-25T01:25:19.409Z,2.40
2023-02-25T01:27:48.197Z,2.40
2023-02-25T01:30:18.367Z,2.50
2023-02-25T01:32:47.787Z,2.50
2023-02-25T01:35:16.647Z,2.40
2023-02-25T01:37:47.342Z,2.40
2023-02-25T01:40:19.742Z,2.50
2023-02-25T01:42:49.029Z,2.40
2023-02-25T01:45:35.807Z,2.50
2023-02-25T01:48:11.355Z,2.40
2023-02-25T01:50:48.678Z,2.40
2023-02-25T01:53:22.438Z,2.40
2023-02-25T01:55:53.941Z,2.40
2023-02-25T01:58:23.973Z,2.40
2023-02-25T02:00:55.852Z,2.50
2023-02-25T02:03:28.304Z,2.50
2023-02-25T02:06:04.087Z,2.50
2023-02-25T02:08:35.941Z,2.60
2023-02-25T02:11:06.868Z,2.60
2023-02-25T02:13:38.995Z,2.60
2023-02-25T02:16:29.406Z,2.60
2023-02-25T02:19:03.084Z,2.60
2023-02-25T02:21:51.294Z,2.60
2023-02-25T02:25:01.714Z,2.60
2023-02-25T02:27:46.394Z,2.70
2023-02-25T02:30:38.674Z,2.60
2023-02-25T02:33:17.961Z,2.70
2023-02-25T02:35:53.302Z,2.70
2023-02-25T02:38:32.948Z,2.70
2023-02-25T02:41:08.626Z,2.70
2023-02-25T02:43:42.800Z,2.70
2023-02-25T02:46:20.425Z,2.70
2023-02-25T02:48:56.985Z,2.70
2023-02-25T02:51:31.895Z,2.70
2023-02-25T02:54:03.716Z,2.80
2023-02-25T02:56:36.512Z,2.80
2023-02-25T02:59:09.335Z,2.80
2023-02-25T03:01:45.292Z,2.90
2023-02-25T03:04:20.826Z,2.80
2023-02-25T03:06:55.325Z,2.90
2023-02-25T03:09:30.740Z,2.90
2023-02-25T03:11:59.550Z,2.90
2023-02-25T03:14:28.862Z,2.90
2023-02-25T03:17:04.973Z,2.90
2023-02-25T03:19:41.371Z,3.00
2023-02-25T03:22:16.471Z,3.00
2023-02-25T03:24:50.228Z,3.00
2023-02-25T03:27:26.575Z,3.00
2023-02-25T03:30:06.261Z,2.90
2023-02-25T03:32:39.026Z,3.70
2023-02-25T03:35:13.332Z,2.90
2023-02-25T03:37:45.435Z,2.80
2023-02-25T03:40:16.014Z,2.90
2023-02-25T03:42:49.424Z,2.80
2023-02-25T03:45:19.255Z,2.70
2023-02-25T03:47:49.017Z,2.60
2023-02-25T03:50:23.000Z,2.60
2023-02-25T03:52:59.250Z,2.50
2023-02-25T03:55:58.779Z,2.60
2023-02-25T03:58:28.092Z,2.60
2023-02-25T04:01:02.761Z,2.50
2023-02-25T04:03:33.686Z,2.40
2023-02-25T04:06:04.093Z,2.40
2023-02-25T04:08:33.051Z,2.20
2023-02-25T04:11:01.763Z,2.30
2023-02-25T04:13:30.926Z,2.20
2023-02-25T04:16:00.310Z,1.40
2023-02-25T04:18:29.343Z,2.10
2023-02-25T04:20:58.363Z,2.20
2023-02-25T04:23:28.909Z,2.20
2023-02-25T04:25:57.474Z,2.20
2023-02-25T04:28:26.258Z,2.20
2023-02-25T04:30:55.374Z,2.30
2023-02-25T04:33:24.356Z,2.30
2023-02-25T04:35:53.525Z,2.20
2023-02-25T04:38:22.225Z,2.30
2023-02-25T04:40:55.338Z,2.30
2023-02-25T04:43:24.255Z,2.30
2023-02-25T04:45:55.901Z,2.30
2023-02-25T04:48:25.005Z,2.30
2023-02-25T04:50:53.634Z,2.30
2023-02-25T04:53:23.267Z,2.30
2023-02-25T04:55:53.722Z,2.30
2023-02-25T04:58:22.486Z,2.30
2023-02-25T05:00:51.097Z,2.30
2023-02-25T05:03:19.799Z,2.30
2023-02-25T05:05:48.353Z,2.30
2023-02-25T05:08:17.339Z,2.30
2023-02-25T05:10:45.816Z,2.30
2023-02-25T05:13:16.314Z,2.30
2023-02-25T05:15:45.528Z,2.30
2023-02-25T05:18:14.187Z,2.60
2023-02-25T05:20:44.219Z,2.40
2023-02-25T05:23:13.120Z,2.40
2023-02-25T05:25:42.838Z,2.70
2023-02-25T05:28:12.448Z,2.40
2023-02-25T05:30:42.594Z,2.40
2023-02-25T05:33:13.959Z,2.60
2023-02-25T05:35:42.695Z,2.60
2023-02-25T05:38:11.675Z,2.60
2023-02-25T05:40:41.272Z,2.90
2023-02-25T05:43:10.788Z,2.70
2023-02-25T05:45:39.812Z,2.50
2023-02-25T05:48:10.462Z,2.50
2023-02-25T05:50:41.949Z,2.50
2023-02-25T05:53:11.268Z,2.50
2023-02-25T05:55:44.475Z,2.40
2023-02-25T05:58:15.312Z,2.40
2023-02-25T06:00:44.048Z,2.40
2023-02-25T06:03:17.146Z,2.40
2023-02-25T06:05:47.917Z,2.70
2023-02-25T06:08:16.747Z,2.40
2023-02-25T06:10:45.415Z,2.40
2023-02-25T06:13:16.544Z,2.40
2023-02-25T06:15:45.264Z,2.50
2023-02-25T06:18:16.368Z,2.50
2023-02-25T06:20:46.139Z,2.50
2023-02-25T06:23:15.417Z,2.50
2023-02-25T06:25:44.244Z,2.60
2023-02-25T06:28:13.699Z,2.60
2023-02-25T06:30:43.500Z,2.60
2023-02-25T06:33:12.511Z,2.60
2023-02-25T06:35:43.224Z,2.70
2023-02-25T06:38:12.989Z,2.70
2023-02-25T06:40:41.528Z,2.60
2023-02-25T06:43:10.628Z,2.60
2023-02-25T06:45:40.088Z,2.60
2023-02-25T06:48:09.054Z,2.60
2023-02-25T06:50:39.775Z,2.60
2023-02-25T06:53:10.733Z,2.60
2023-02-25T06:55:41.136Z,2.60
2023-02-25T06:58:10.834Z,2.60
2023-02-25T07:00:40.482Z,2.60
2023-02-25T07:03:11.330Z,2.50
2023-02-25T07:05:41.913Z,2.50
2023-02-25T07:08:15.848Z,2.50
2023-02-25T07:10:48.249Z,2.50
2023-02-25T07:13:17.976Z,2.40
2023-02-25T07:15:47.917Z,2.50
2023-02-25T07:18:17.101Z,2.50
2023-02-25T07:20:46.272Z,2.50
2023-02-25T07:23:17.309Z,2.50
2023-02-25T07:25:47.122Z,2.60
2023-02-25T07:28:16.890Z,2.60
2023-02-25T07:30:46.286Z,3.10
2023-02-25T07:33:15.095Z,2.60
2023-02-25T07:35:43.821Z,2.60
2023-02-25T07:38:15.554Z,2.70
2023-02-25T07:40:46.083Z,2.70
2023-02-25T07:43:15.619Z,2.70
2023-02-25T07:45:44.895Z,2.60
2023-02-25T07:48:14.246Z,2.60
2023-02-25T07:50:45.230Z,2.50
2023-02-25T07:53:14.335Z,2.40
2023-02-25T07:55:46.971Z,2.30
2023-02-25T07:58:16.840Z,2.40
2023-02-25T08:00:47.025Z,2.40
2023-02-25T08:03:16.243Z,2.50
2023-02-25T08:05:45.672Z,2.50
2023-02-25T08:08:14.802Z,2.60
2023-02-25T08:10:43.905Z,2.60
2023-02-25T08:13:14.641Z,2.60
2023-02-25T08:15:44.568Z,2.60
2023-02-25T08:18:13.937Z,2.70
2023-02-25T08:20:47.931Z,2.70
2023-02-25T08:23:17.347Z,2.70
2023-02-25T08:25:46.548Z,2.70
2023-02-25T08:28:17.499Z,2.70
2023-02-25T08:30:47.219Z,2.70
2023-02-25T08:33:20.124Z,2.60
2023-02-25T08:35:49.086Z,2.60
2023-02-25T08:38:18.274Z,2.60
2023-02-25T08:40:47.756Z,2.60
2023-02-25T08:43:17.749Z,2.70
2023-02-25T08:45:46.950Z,2.70
2023-02-25T08:48:17.640Z,2.70
2023-02-25T08:50:46.804Z,2.80
2023-02-25T08:53:15.974Z,2.70
2023-02-25T08:55:47.935Z,2.80
2023-02-25T08:58:18.504Z,2.70
2023-02-25T09:00:50.794Z,2.70
2023-02-25T09:03:20.378Z,2.70
2023-02-25T09:05:53.836Z,3.10
2023-02-25T09:08:23.621Z,2.60
2023-02-25T09:10:54.986Z,2.50
2023-02-25T09:13:29.422Z,2.50
2023-02-25T09:16:00.113Z,2.50
2023-02-25T09:18:31.467Z,2.50
2023-02-25T09:21:06.905Z,2.50
2023-02-25T09:23:36.417Z,2.40
2023-02-25T09:26:07.593Z,2.50
2023-02-25T09:28:38.663Z,2.50
2023-02-25T09:31:08.641Z,2.40
2023-02-25T09:33:39.294Z,2.40
2023-02-25T09:36:10.591Z,2.40
2023-02-25T09:38:41.771Z,2.50
2023-02-25T09:41:26.515Z,2.60
2023-02-25T09:44:06.536Z,2.70
2023-02-25T09:46:41.816Z,2.80
2023-02-25T09:49:18.353Z,2.90
2023-02-25T09:51:55.603Z,3.00
2023-02-25T09:54:30.615Z,2.90
2023-02-25T09:57:03.563Z,2.70
2023-02-25T09:59:36.116Z,2.70
2023-02-25T10:02:19.202Z,2.70
2023-02-25T10:04:56.081Z,2.80
2023-02-25T10:07:30.395Z,3.00
2023-02-25T10:10:08.504Z,2.60
2023-02-25T10:12:44.036Z,2.90
2023-02-25T10:28:45.375Z,3.00
2023-02-25T10:31:19.172Z,3.00
2023-02-25T10:33:49.945Z,3.00
2023-02-25T10:36:21.340Z,2.90
2023-02-25T10:38:51.646Z,2.90
2023-02-25T10:41:32.922Z,3.00
2023-02-25T10:44:16.211Z,3.60
2023-02-25T10:46:54.324Z,4.50
2023-02-25T10:49:28.459Z,5.10
2023-02-25T10:52:03.462Z,5.60
2023-02-25T10:54:34.073Z,5.50
2023-02-25T10:57:11.966Z,4.90
2023-02-25T10:59:44.524Z,4.40
2023-02-25T11:02:23.619Z,4.40
2023-02-25T11:04:53.903Z,4.30
2023-02-25T11:14:50.513Z,3.80
2023-02-25T11:17:22.224Z,3.70
2023-02-25T11:19:59.995Z,3.50
2023-02-25T11:22:36.332Z,3.30
2023-02-25T11:25:09.913Z,3.20
2023-02-25T11:27:41.810Z,2.60
2023-02-25T11:30:25.295Z,2.50
2023-02-25T11:32:58.685Z,2.70
2023-02-25T11:35:31.968Z,2.90
2023-02-25T11:38:14.455Z,3.10
2023-02-25T11:40:45.821Z,3.10
2023-02-25T11:45:57.039Z,3.50
2023-02-25T11:48:29.627Z,3.60
2023-02-25T11:51:08.508Z,3.80
2023-02-25T11:53:57.000Z,3.70
2023-02-25T11:56:32.302Z,3.80
2023-02-25T11:59:31.210Z,3.30
2023-02-25T12:02:20.969Z,2.80
2023-02-25T12:05:17.272Z,2.80
2023-02-25T12:08:19.277Z,2.90
2023-02-25T12:11:13.349Z,2.80
2023-02-25T12:14:21.193Z,2.60
2023-02-25T12:17:19.961Z,2.50
2023-02-25T12:20:18.818Z,2.50
2023-02-25T12:23:33.077Z,2.50
2023-02-25T12:26:11.190Z,2.30
2023-02-25T12:29:01.543Z,2.50
2023-02-25T12:32:02.087Z,2.60
2023-02-25T12:34:50.341Z,3.00
2023-02-25T12:37:42.852Z,3.80
2023-02-25T12:40:31.025Z,3.90
2023-02-25T12:43:14.672Z,4.10
2023-02-25T12:45:58.751Z,3.80
2023-02-25T12:49:14.252Z,4.00
2023-02-25T12:52:05.633Z,3.60
2023-02-25T12:55:24.486Z,3.40
2023-02-25T12:58:19.238Z,3.10
2023-02-25T13:01:07.993Z,3.10
2023-02-25T13:03:58.035Z,3.10
2023-02-25T13:07:03.238Z,3.00
2023-02-25T13:09:47.934Z,3.10
2023-02-25T13:12:36.047Z,2.90
2023-02-25T13:15:12.724Z,2.90
2023-02-25T13:18:07.302Z,2.90
2023-02-25T13:20:52.916Z,2.80
2023-02-25T13:23:52.074Z,2.90
2023-02-25T13:26:39.096Z,2.50
2023-02-25T13:29:37.418Z,2.40
2023-02-25T13:32:24.528Z,2.30
2023-02-25T13:35:21.253Z,2.20
2023-02-25T13:38:02.489Z,2.10
2023-02-25T13:40:49.748Z,2.20
2023-02-25T13:43:51.191Z,2.20
2023-02-25T13:46:55.885Z,2.30
2023-02-25T13:49:56.722Z,2.30
2023-02-25T13:52:35.701Z,2.30
2023-02-25T13:55:30.755Z,2.40
2023-02-25T13:58:22.574Z,2.50
2023-02-25T14:01:30.960Z,2.40
2023-02-25T14:04:46.443Z,2.30
2023-02-25T14:08:05.281Z,2.50
2023-02-25T14:10:48.996Z,2.60
2023-02-25T14:13:44.812Z,2.50
2023-02-25T14:16:45.690Z,2.60
2023-02-25T14:19:39.205Z,2.60
2023-02-25T14:22:37.553Z,2.60
2023-02-25T14:25:20.109Z,2.60
2023-02-25T14:28:01.456Z,2.60
2023-02-25T14:30:41.466Z,2.60
2023-02-25T14:33:36.527Z,2.40
2023-02-25T14:36:23.724Z,2.50
2023-02-25T14:39:38.043Z,2.30
2023-02-25T14:42:24.606Z,2.30
2023-02-25T14:45:00.832Z,2.30
2023-02-25T14:47:32.960Z,2.30
2023-02-25T14:50:11.435Z,2.30
2023-02-25T14:52:56.078Z,2.40
2023-02-25T14:55:55.483Z,2.40
2023-02-25T14:58:39.900Z,2.40
2023-02-25T15:01:39.188Z,2.40
2023-02-25T15:04:56.811Z,2.40
2023-02-25T15:07:45.940Z,2.20
2023-02-25T15:10:36.078Z,1.40
2023-02-25T15:13:45.196Z,2.10
2023-02-25T15:16:40.555Z,2.00
2023-02-25T15:19:46.616Z,2.00
2023-02-25T15:22:22.076Z,2.00
2023-02-25T15:24:55.231Z,2.00
2023-02-25T15:27:44.335Z,2.00
2023-02-25T15:30:16.096Z,2.00
2023-02-25T15:33:08.161Z,2.00
2023-02-25T15:35:59.290Z,2.00
2023-02-25T15:38:47.381Z,2.00
2023-02-25T15:41:46.687Z,1.90
2023-02-25T15:44:36.649Z,1.80
2023-02-25T15:47:26.455Z,1.80
2023-02-25T15:49:58.171Z,1.80
2023-02-25T15:53:01.799Z,1.70
2023-02-25T15:55:42.447Z,1.70
2023-02-25T15:58:58.965Z,1.60
2023-02-25T16:01:44.690Z,1.60
2023-02-25T16:04:53.148Z,1.60
2023-02-25T16:07:26.947Z,1.50
2023-02-25T16:09:59.702Z,1.50
2023-02-25T16:12:32.002Z,1.50
2023-02-25T16:15:04.117Z,1.50
2023-02-25T16:17:36.892Z,1.50
2023-02-25T16:20:19.280Z,1.40
2023-02-25T16:22:50.112Z,1.40
2023-02-25T16:25:27.698Z,1.30
2023-02-25T16:28:04.936Z,1.30
2023-02-25T16:30:41.990Z,1.30
2023-02-25T16:33:24.530Z,0.60
2023-02-25T16:36:07.505Z,1.30
2023-02-25T16:38:48.609Z,1.30
2023-02-25T16:41:18.026Z,2.30
2023-02-25T16:43:48.197Z,1.20
2023-02-25T16:46:23.693Z,1.20
2023-02-25T16:48:56.212Z,1.10
2023-02-25T16:51:28.849Z,1.20
2023-02-25T16:54:05.572Z,1.10
2023-02-25T16:56:35.452Z,1.10
2023-02-25T16:59:08.011Z,1.80
2023-02-25T17:01:40.720Z,1.10
2023-02-25T17:04:20.060Z,1.10
2023-02-25T17:07:09.770Z,1.10
2023-02-25T17:09:46.216Z,1.10
2023-02-25T17:12:19.441Z,1.00
2023-02-25T17:14:50.930Z,1.00
2023-02-25T17:17:27.229Z,1.00
2023-02-25T17:19:58.306Z,0.90
2023-02-25T17:22:28.391Z,0.90
2023-02-25T17:24:59.060Z,0.90
2023-02-25T17:27:30.266Z,0.90
2023-02-25T17:29:59.963Z,0.80
2023-02-25T17:32:31.900Z,0.80
2023-02-25T17:35:04.154Z,0.80
2023-02-25T17:37:34.500Z,0.80
2023-02-25T17:40:08.530Z,0.80
2023-02-25T17:42:39.523Z,0.80
2023-02-25T17:45:31.387Z,0.80
2023-02-25T17:48:02.164Z,0.80
2023-02-25T17:50:34.273Z,0.80
2023-02-25T17:53:05.638Z,0.80
2023-02-25T17:55:37.100Z,0.80
2023-02-25T17:58:08.249Z,0.70
2023-02-25T18:00:39.020Z,0.70
2023-02-25T18:03:21.211Z,0.70
2023-02-25T18:05:54.396Z,0.70
2023-02-25T18:08:24.293Z,0.70
2023-02-25T18:10:59.573Z,0.60
2023-02-25T18:13:36.543Z,0.60
2023-02-25T18:16:33.449Z,0.60
2023-02-25T18:19:09.474Z,0.50
2023-02-25T18:21:43.370Z,0.50
2023-02-25T18:24:24.532Z,0.50
2023-02-25T18:27:09.542Z,1.20
2023-02-25T18:29:39.220Z,0.50
2023-02-25T18:32:09.007Z,0.50
2023-02-25T18:34:40.204Z,0.50
2023-02-25T18:37:11.864Z,0.50
2023-02-25T18:39:41.225Z,0.50
2023-02-25T18:42:16.485Z,0.50
2023-02-25T18:44:46.859Z,0.50
2023-02-25T18:47:17.213Z,0.50
2023-02-25T18:49:49.063Z,0.50
2023-02-25T18:52:23.839Z,0.50
2023-02-25T18:54:53.278Z,0.50
2023-02-25T18:57:25.831Z,0.50
2023-02-25T18:59:57.866Z,0.50
2023-02-25T19:02:32.278Z,0.50
2023-02-25T19:05:03.730Z,0.60
2023-02-25T19:07:35.521Z,0.60
2023-02-25T19:10:05.004Z,0.60
2023-02-25T19:12:37.204Z,0.60
2023-02-25T19:15:09.171Z,0.60
2023-02-25T19:17:38.391Z,0.60
2023-02-25T19:20:12.097Z,0.60
2023-02-25T19:22:44.774Z,0.60
2023-02-25T19:25:20.909Z,0.60
2023-02-25T19:27:50.938Z,0.60
2023-02-25T19:30:26.166Z,0.60
2023-02-25T19:33:03.512Z,0.60
2023-02-25T19:35:37.680Z,0.60
2023-02-25T19:38:08.916Z,0.60
2023-02-25T19:40:39.271Z,0.60
2023-02-25T19:43:09.666Z,0.60
2023-02-25T19:45:39.296Z,0.50
2023-02-25T19:48:09.116Z,0.50
2023-02-25T19:50:45.471Z,0.50
2023-02-25T19:53:15.081Z,0.50
2023-02-25T19:55:46.001Z,0.50
2023-02-25T19:58:16.117Z,0.60
2023-02-25T20:00:47.650Z,0.60
2023-02-25T20:03:20.596Z,0.60
2023-02-25T20:05:53.567Z,0.60
2023-02-25T20:08:25.123Z,0.60
2023-02-25T20:10:54.338Z,0.50
2023-02-25T20:13:25.059Z,0.50
2023-02-25T20:15:55.097Z,0.50
2023-02-25T20:18:26.433Z,0.50
2023-02-25T20:20:57.391Z,0.40
2023-02-25T20:23:26.871Z,0.40
2023-02-25T20:26:05.615Z,0.40
2023-02-25T20:28:35.358Z,0.30
2023-02-25T20:31:07.957Z,0.40
2023-02-25T20:33:38.390Z,0.40
2023-02-25T20:36:22.435Z,0.30
2023-02-25T20:39:14.338Z,0.30
2023-02-25T20:41:50.307Z,0.30
2023-02-25T20:44:21.939Z,0.30
2023-02-25T20:46:51.758Z,0.30
2023-02-25T20:49:22.807Z,0.30
2023-02-25T20:51:55.006Z,0.30
2023-02-25T20:54:26.834Z,0.20
2023-02-25T20:57:02.156Z,0.30
2023-02-25T20:59:32.920Z,0.20
2023-02-25T21:02:02.575Z,0.30
2023-02-25T21:04:31.901Z,0.30
2023-02-25T21:07:04.595Z,0.30
2023-02-25T21:09:34.255Z,0.40
2023-02-25T21:12:04.884Z,0.30
2023-02-25T21:14:34.298Z,0.30
2023-02-25T21:17:03.652Z,0.30
2023-02-25T21:19:33.672Z,0.20
2023-02-25T21:22:09.417Z,0.30
2023-02-25T21:24:40.028Z,0.20
2023-02-25T21:27:09.865Z,0.20
2023-02-25T21:29:39.587Z,0.20
2023-02-25T21:32:10.982Z,0.20
2023-02-25T21:34:41.537Z,0.20
2023-02-25T21:37:13.667Z,0.20
2023-02-25T21:39:43.390Z,0.10
2023-02-25T21:42:13.012Z,0.10
2023-02-25T21:44:45.620Z,0.10
2023-02-25T21:47:15.225Z,0.10
2023-02-25T21:49:44.833Z,0.10
2023-02-25T21:52:17.120Z,0.10
2023-02-25T21:54:46.848Z,0.10
2023-02-25T21:57:16.755Z,0.10
2023-02-25T21:59:46.739Z,0.10
2023-02-25T22:02:16.385Z,0.00
2023-02-25T22:04:48.525Z,0.00
2023-02-25T22:07:19.558Z,0.00
2023-02-25T22:09:50.859Z,0.00
2023-02-25T22:12:20.009Z,0.00
2023-02-25T22:14:49.393Z,0.00
2023-02-25T22:17:19.603Z,0.00
2023-02-25T22:19:48.954Z,-0.10
2023-02-25T22:22:19.503Z,-0.20
2023-02-25T22:24:48.774Z,0.00
2023-02-25T22:27:18.269Z,-0.20
2023-02-25T22:29:47.831Z,-0.20
2023-02-25T22:32:18.970Z,-1.10
2023-02-25T22:34:48.556Z,-0.20
2023-02-25T22:37:20.877Z,-0.20
2023-02-25T22:39:50.525Z,-0.20
2023-02-25T22:42:19.549Z,-0.20
2023-02-25T22:44:49.400Z,-0.20
2023-02-25T22:47:18.803Z,-0.20
2023-02-25T22:49:48.312Z,-0.20
2023-02-25T22:52:19.219Z,-0.20
2023-02-25T22:54:51.134Z,-0.30
2023-02-25T22:57:20.625Z,-0.20
2023-02-25T22:59:50.071Z,-0.20
2023-02-25T23:02:19.500Z,-0.30
2023-02-25T23:04:48.703Z,-0.20
2023-02-25T23:07:19.913Z,-0.20
2023-02-25T23:09:49.732Z,-0.20
2023-02-25T23:12:21.337Z,-0.20
2023-02-25T23:14:50.818Z,-0.20
2023-02-25T23:17:20.243Z,-0.30
2023-02-25T23:19:49.726Z,-0.20
2023-02-25T23:22:25.858Z,0.20
2023-02-25T23:24:55.581Z,-0.20
2023-02-25T23:27:24.779Z,-0.20
2023-02-25T23:29:54.661Z,-0.20
2023-02-25T23:32:24.384Z,-0.20
2023-02-25T23:34:54.663Z,-0.20
2023-02-25T23:37:30.416Z,-0.30
2023-02-25T23:40:01.756Z,-0.30
2023-02-25T23:42:31.232Z,-0.30
2023-02-25T23:45:00.146Z,-0.30
2023-02-25T23:47:29.651Z,0.00
2023-02-25T23:49:59.432Z,-0.20
2023-02-25T23:52:30.947Z,-0.30
2023-02-25T23:55:00.326Z,-0.30
2023-02-25T23:57:29.861Z,-0.20
2023-02-25T23:59:59.536Z,-0.20
